首页
METAR-TAF:

METAR-TAF

机场 :

科希策, 斯洛伐克

纬度: 48-39-47N, 经度: 021-14-28E, 海拔: 232米

当前天气观测

该预报发布于18分钟前的08:30 UTC
风速8节,风向
温度 4°C
湿度 93%
气压 996 hPa
能見度: 8000
阴天层高于1300英尺
小雨

METAR: LZKZ 130830Z 18008KT 8000 -RA OVC013 04/03 Q0996 NOSIG

时间: 09:48 (08:48 UTC)

预报

该预报发布于3小时和48分钟前的05:00 UTC
预报有效从13日的 06点(UTC)到 14日的 06点(UTC)
风速2节,风向多变
能見度: 7000
阴天层高于3000英尺
小雨
短暂存在
从 13日的 06点(UTC)到 13日的 08点(UTC)
能見度: 2500
多云层高于1000英尺
阴天层高于2000英尺
小雨, 轻雾
几率 40% :
短暂存在
从 13日的 06点(UTC)到 13日的 07点(UTC)
能見度: 1400
阴天层高于800英尺
雨, 轻雾
短暂存在
从 13日的 08点(UTC)到 13日的 16点(UTC)
风速10节,风向
成为
从 13日的 14点(UTC)到 13日的 16点(UTC)
能见度10公里或以上
阴天层高于1700英尺
短暂存在
从 13日的 21点(UTC)到 14日的 00点(UTC)
小雨
短暂存在
从 14日的 00点(UTC)到 14日的 06点(UTC)
能見度: 1000
散云层高于800英尺
多云层高于1200英尺
碎片雾

TAF: LZKZ 130500Z 1306/1406 VRB02KT 7000 -RA OVC030 TEMPO 1306/1308 2500 -RA BR BKN010 OVC020 PROB40 TEMPO 1306/1307 1400 RA BR OVC008 TEMPO 1308/1316 18010KT BECMG 1314/1316 9999 NSW OVC017 TEMPO 1321/1400 -RA TEMPO 1400/1406 1000 BCFG SCT008 BKN012

超过4000个机场的气象观测和天气预报(METAR&TAF报告)。

可查询的气象台以黄色和红色小点在地图上表示。

将鼠标移到小点上方,可查看气象台名称。

然后点击查看天气观测和预报。

如需切换地图:点击带黑十字的绿色按钮放大地图;点击带横线的绿色按钮缩小地图;或者点击绿色箭头查看邻近地区的地图。


METAR-TAF: